This is the latest recevied weather packets stored in our database for station/object IW2LAO-13. If no packets are shown the sender has not sent any weather packets the latest 10 day(s).
| Time | Temp. | Humidity | Pressure | Rain* | Wind** | Luminosity | Snow |
|---|---|---|---|---|---|---|---|
| 1777330398 | 18.33° C | 70% | 1014.5 hPa | 0 mm | - | 0 W/m² | - |
| 1777327397 | 18.33° C | 70% | 1014.5 hPa | 0 mm | - | 0 W/m² | - |
| 1777326796 | 18.89° C | 67% | 1014.6 hPa | 0 mm | - | 0 W/m² | - |
| 1777323193 | 17.78° C | 70% | 1014.6 hPa | 0 mm | - | 0 W/m² | - |
| 1777320192 | 19.44° C | 63% | 1014.6 hPa | 0 mm | - | 0 W/m² | - |
| 1777319589 | 19.44° C | 65% | 1014.5 hPa | 0 mm | - | 0 W/m² | - |
| 1777317790 | 20° C | 64% | 1014.4 hPa | 0 mm | - | 0 W/m² | - |
| 1777314189 | 21.67° C | 58% | 1013.6 hPa | 0 mm | - | 0 W/m² | - |
| 1777308787 | 23.33° C | 52% | 1013.1 hPa | 0 mm | - | 81 W/m² | - |
| 1777296778 | 25.56° C | 51% | 1014.4 hPa | 0 mm | - | 717 W/m² | - |
| 1777293188 | 24.44° C | 54% | 1014.7 hPa | 0 mm | - | 464 W/m² | - |
| 1777290778 | 24.44° C | 53% | 1015 hPa | 0 mm | - | 962 W/m² | - |
| 1777289576 | 24.44° C | 54% | 1015.1 hPa | 0 mm | - | 921 W/m² | - |
| 1777288976 | 24.44° C | 54% | 1015.1 hPa | 0 mm | - | 844 W/m² | - |
| 1777284174 | 22.78° C | 57% | 1016.2 hPa | 0 mm | - | 798 W/m² | - |
| 1777277572 | 19.44° C | 63% | 1017.3 hPa | 0 mm | - | 369 W/m² | - |
| 1777273969 | 16.67° C | 67% | 1017.7 hPa | 0 mm | - | 388 W/m² | - |
| 1777272769 | 16.11° C | 69% | 1018 hPa | 0 mm | - | 74 W/m² | - |
| 1777271568 | 15.56° C | 71% | 1018.1 hPa | 0 mm | - | 62 W/m² | - |
| 1777266439 | 12.78° C | 79% | 1017.8 hPa | 0 mm | - | 23 W/m² | - |
| 1777257429 | 13.33° C | 79% | 1017.4 hPa | 0 mm | - | 0 W/m² | - |
| 1777256230 | 13.33° C | 79% | 1017.2 hPa | 0 mm | - | 0 W/m² | - |
| 1777254429 | 13.33° C | 78% | 1017 hPa | 0 mm | - | 0 W/m² | - |
| 1777253830 | 13.89° C | 77% | 1017.1 hPa | 0 mm | - | 0 W/m² | - |
| 1777250229 | 15° C | 73% | 1017.2 hPa | 0 mm | - | 0 W/m² | - |
* Rain latest hour (hover to see other rain measurements)
** Current wind speed in m/s (hover to see current wind gust speed)